createdAt,value
2024-04-24T00:02:39.378Z,7.93
2024-04-24T00:05:41.281Z,8.05
2024-04-24T00:08:43.196Z,7.77
2024-04-24T00:11:45.146Z,7.80
2024-04-24T00:14:47.113Z,5.90
2024-04-24T00:17:49.091Z,4.90
2024-04-24T00:20:54.761Z,7.88
2024-04-24T00:23:56.656Z,4.50
2024-04-24T00:26:58.564Z,8.65
2024-04-24T00:30:00.460Z,7.50
2024-04-24T00:33:02.486Z,6.78
2024-04-24T00:36:04.636Z,7.15
2024-04-24T00:39:06.572Z,6.87
2024-04-24T00:42:17.664Z,7.28
2024-04-24T00:45:19.560Z,6.28
2024-04-24T00:48:21.803Z,9.00
2024-04-24T00:51:24.441Z,9.10
2024-04-24T00:54:27.193Z,9.70
2024-04-24T00:57:29.054Z,10.15
2024-04-24T01:00:30.995Z,7.68
2024-04-24T01:03:33.495Z,8.15
2024-04-24T01:06:35.422Z,12.45
2024-04-24T01:09:37.304Z,8.67
2024-04-24T01:12:39.193Z,10.00
2024-04-24T01:15:41.712Z,9.07
2024-04-24T01:18:49.021Z,10.27
2024-04-24T01:22:14.232Z,8.00
2024-04-24T01:25:31.270Z,4.93
2024-04-24T01:28:33.240Z,10.45
2024-04-24T01:31:35.135Z,8.50
2024-04-24T01:34:37.041Z,7.35
2024-04-24T01:37:38.950Z,9.75
2024-04-24T01:40:40.884Z,8.97
2024-04-24T01:43:42.774Z,3.85
2024-04-24T01:46:44.674Z,8.55
2024-04-24T01:49:46.660Z,9.07
2024-04-24T01:52:48.615Z,10.20
2024-04-24T01:55:50.585Z,6.90
2024-04-24T01:58:52.618Z,11.25
2024-04-24T02:01:54.615Z,9.43
2024-04-24T02:04:56.618Z,5.85
2024-04-24T02:07:58.614Z,8.02
2024-04-24T02:11:00.544Z,9.90
2024-04-24T02:14:02.677Z,4.57
2024-04-24T02:17:04.616Z,5.15
2024-04-24T02:20:06.729Z,10.65
2024-04-24T02:23:09.066Z,6.88
2024-04-24T02:26:11.040Z,7.33
2024-04-24T02:29:13.034Z,8.63
2024-04-24T02:32:15.010Z,9.40
2024-04-24T02:35:17.114Z,8.93
2024-04-24T02:38:19.356Z,8.30
2024-04-24T02:41:21.390Z,7.53
2024-04-24T02:44:23.404Z,8.48
2024-04-24T02:47:25.341Z,4.68
2024-04-24T02:50:27.829Z,10.77
2024-04-24T02:53:29.938Z,7.22
2024-04-24T02:56:31.866Z,6.77
2024-04-24T02:59:33.747Z,6.22
2024-04-24T03:02:36.875Z,7.53
2024-04-24T03:05:38.812Z,7.93
2024-04-24T03:08:40.670Z,6.60
2024-04-24T03:11:42.779Z,5.57
2024-04-24T03:14:46.539Z,8.10
2024-04-24T03:17:48.625Z,7.97
2024-04-24T03:20:50.849Z,7.90
2024-04-24T03:23:52.868Z,7.37
2024-04-24T03:26:54.750Z,12.03
2024-04-24T03:29:56.658Z,9.57
2024-04-24T03:32:58.657Z,9.75
2024-04-24T03:36:00.800Z,11.63
2024-04-24T03:39:02.846Z,7.47
2024-04-24T03:42:04.760Z,8.20
2024-04-24T03:45:06.697Z,6.32
2024-04-24T03:48:08.694Z,7.18
2024-04-24T03:51:10.685Z,6.38
2024-04-24T03:54:12.569Z,7.63
2024-04-24T03:57:14.460Z,6.33
2024-04-24T04:00:16.987Z,7.15
2024-04-24T04:03:18.976Z,8.57
2024-04-24T04:06:20.861Z,9.70
2024-04-24T04:09:22.913Z,9.38
2024-04-24T04:12:24.823Z,9.03
2024-04-24T04:15:26.722Z,11.73
2024-04-24T04:18:28.880Z,9.93
2024-04-24T04:21:30.843Z,6.40
2024-04-24T04:24:32.716Z,9.82
2024-04-24T04:27:34.716Z,8.90
2024-04-24T04:30:36.595Z,8.48
2024-04-24T04:33:38.677Z,7.88
2024-04-24T04:36:40.759Z,8.40
2024-04-24T04:39:42.723Z,8.77
2024-04-24T04:42:44.758Z,9.57
2024-04-24T04:45:46.701Z,7.60
2024-04-24T04:48:52.600Z,11.25
2024-04-24T04:51:55.121Z,10.48
2024-04-24T04:54:57.014Z,6.32
2024-04-24T04:58:04.780Z,6.80
2024-04-24T05:01:06.816Z,8.85
2024-04-24T05:04:08.842Z,10.00
2024-04-24T05:07:10.788Z,11.00
2024-04-24T05:10:12.972Z,9.45
2024-04-24T05:13:14.952Z,10.37
2024-04-24T05:16:16.883Z,10.63
2024-04-24T05:19:18.760Z,9.07
2024-04-24T05:22:20.782Z,9.75
2024-04-24T05:25:24.431Z,10.10
2024-04-24T05:28:47.578Z,14.30
2024-04-24T05:39:44.759Z,11.07
2024-04-24T05:42:46.713Z,10.03
2024-04-24T05:45:48.646Z,10.60
2024-04-24T05:48:50.688Z,12.27
2024-04-24T05:51:52.637Z,12.15
2024-04-24T05:54:54.526Z,7.15
2024-04-24T05:57:56.430Z,8.32
2024-04-24T06:00:58.350Z,9.77
2024-04-24T06:04:00.287Z,9.73
2024-04-24T06:07:02.172Z,11.32
2024-04-24T06:10:04.225Z,11.32
2024-04-24T06:13:06.801Z,11.75
2024-04-24T06:16:08.691Z,13.63
2024-04-24T06:19:11.439Z,13.63
2024-04-24T06:22:13.495Z,8.95
2024-04-24T06:25:16.968Z,10.18
2024-04-24T06:28:18.906Z,9.48
2024-04-24T06:31:20.855Z,16.63
2024-04-24T06:34:22.802Z,13.50
2024-04-24T06:37:24.688Z,11.38
2024-04-24T06:40:26.684Z,11.40
2024-04-24T06:43:29.079Z,11.10
2024-04-24T06:46:31.713Z,9.00
2024-04-24T06:49:36.081Z,12.57
2024-04-24T06:52:37.995Z,16.67
2024-04-24T06:55:45.174Z,11.50
2024-04-24T06:58:49.366Z,11.88
2024-04-24T07:01:51.527Z,9.43
2024-04-24T07:04:53.531Z,11.35
2024-04-24T07:07:55.503Z,15.05
2024-04-24T07:10:58.274Z,15.32
2024-04-24T07:14:00.331Z,14.98
2024-04-24T07:17:02.407Z,9.50
2024-04-24T07:20:04.560Z,11.32
2024-04-24T07:23:06.569Z,13.93
2024-04-24T07:26:08.513Z,13.38
2024-04-24T07:29:10.493Z,13.70
2024-04-24T07:32:13.431Z,10.83
2024-04-24T07:35:16.130Z,14.93
2024-04-24T07:38:18.210Z,13.43
2024-04-24T07:50:53.137Z,11.63
2024-04-24T07:53:55.062Z,16.58
2024-04-24T07:56:57.437Z,16.65
2024-04-24T07:59:59.378Z,14.23
2024-04-24T08:03:02.743Z,11.83
2024-04-24T08:06:06.891Z,11.30
2024-04-24T08:09:10.558Z,11.52
2024-04-24T08:12:12.560Z,14.52
2024-04-24T08:15:14.604Z,9.07
2024-04-24T08:18:16.526Z,9.98
2024-04-24T08:21:18.460Z,10.80
2024-04-24T08:24:20.429Z,11.32
2024-04-24T08:27:22.465Z,14.75
2024-04-24T08:30:24.966Z,12.00
2024-04-24T08:33:26.948Z,12.65
2024-04-24T08:36:28.915Z,13.43
2024-04-24T08:39:31.027Z,13.07
2024-04-24T08:42:33.057Z,11.02
2024-04-24T08:45:35.210Z,10.70
2024-04-24T08:48:43.809Z,7.10
2024-04-24T08:51:47.045Z,13.10
2024-04-24T08:54:52.572Z,10.27
2024-04-24T08:57:54.818Z,11.93
2024-04-24T09:00:58.525Z,10.32
2024-04-24T09:04:03.145Z,10.30
2024-04-24T09:07:05.202Z,11.37
2024-04-24T09:10:07.456Z,10.95
2024-04-24T09:13:12.081Z,12.75
2024-04-24T09:16:16.846Z,8.90
2024-04-24T09:19:22.088Z,9.20
2024-04-24T09:22:25.532Z,8.57
2024-04-24T09:25:27.530Z,11.23
2024-04-24T09:28:29.507Z,13.27
2024-04-24T09:31:33.493Z,14.20
2024-04-24T09:34:36.046Z,16.48
2024-04-24T09:37:38.242Z,11.83
2024-04-24T09:40:40.745Z,14.95
2024-04-24T09:43:42.733Z,10.00
2024-04-24T09:46:49.216Z,10.55
2024-04-24T09:49:54.131Z,13.93
2024-04-24T09:52:59.214Z,16.57
2024-04-24T09:56:21.305Z,16.08
2024-04-24T09:59:28.129Z,10.55
2024-04-24T10:02:32.544Z,11.07
2024-04-24T10:05:43.596Z,9.35
2024-04-24T10:08:55.466Z,8.10
2024-04-24T10:12:03.412Z,6.68
2024-04-24T10:15:05.351Z,6.07
2024-04-24T10:18:08.080Z,11.75
2024-04-24T10:21:11.079Z,10.32
2024-04-24T10:24:13.570Z,8.40
2024-04-24T10:27:16.560Z,9.57
2024-04-24T10:30:23.513Z,9.75
2024-04-24T10:33:26.093Z,4.43
2024-04-24T10:36:28.571Z,10.02
2024-04-24T10:39:30.583Z,7.63
2024-04-24T10:42:33.116Z,5.95
2024-04-24T10:45:42.179Z,6.95
2024-04-24T10:48:56.249Z,6.03
2024-04-24T11:01:39.345Z,8.07
2024-04-24T11:04:49.373Z,9.60
2024-04-24T11:07:59.178Z,9.50
2024-04-24T11:11:02.115Z,9.45
2024-04-24T11:14:05.202Z,5.67
2024-04-24T11:17:07.439Z,5.40
2024-04-24T11:20:09.550Z,5.90
2024-04-24T11:23:11.555Z,6.72
2024-04-24T11:26:13.472Z,6.07
2024-04-24T11:29:15.407Z,6.70
2024-04-24T11:32:17.742Z,4.82
2024-04-24T11:35:22.401Z,5.97
2024-04-24T11:38:27.212Z,5.55
2024-04-24T11:41:32.081Z,5.78
2024-04-24T11:44:34.811Z,7.80
2024-04-24T11:47:37.047Z,6.10
2024-04-24T11:50:39.293Z,6.88
2024-04-24T11:53:46.288Z,5.70
2024-04-24T11:56:48.231Z,7.00
2024-04-24T11:59:50.285Z,6.97
2024-04-24T12:02:52.353Z,7.03
2024-04-24T12:05:54.394Z,7.05
2024-04-24T12:09:01.127Z,6.13
2024-04-24T12:12:03.115Z,6.40
2024-04-24T12:15:05.338Z,7.43
2024-04-24T12:18:10.072Z,5.35
2024-04-24T12:21:17.255Z,5.82
2024-04-24T12:24:26.374Z,5.35
2024-04-24T12:27:33.578Z,5.03
2024-04-24T12:30:40.812Z,5.60
2024-04-24T12:33:48.096Z,7.53
2024-04-24T12:36:55.564Z,8.50
2024-04-24T12:40:02.874Z,7.75
2024-04-24T12:43:07.411Z,6.28
2024-04-24T12:46:09.387Z,4.23
2024-04-24T12:49:11.587Z,4.47
2024-04-24T12:52:16.687Z,3.95
2024-04-24T12:55:21.187Z,3.90
2024-04-24T12:58:25.849Z,8.98
2024-04-24T13:38:53.539Z,4.10
2024-04-24T13:41:55.501Z,4.07
2024-04-24T13:44:57.666Z,4.77
2024-04-24T13:47:59.747Z,5.40
2024-04-24T13:51:01.698Z,4.15
2024-04-24T13:54:04.868Z,6.72
2024-04-24T13:57:07.238Z,4.63
2024-04-24T14:00:09.783Z,4.35
2024-04-24T14:03:12.239Z,6.93
2024-04-24T14:06:14.277Z,5.95
2024-04-24T14:09:16.228Z,4.70
2024-04-24T14:12:18.194Z,5.20
2024-04-24T14:15:20.121Z,3.35
2024-04-24T14:18:22.071Z,4.30
2024-04-24T14:21:24.047Z,2.95
2024-04-24T14:24:26.048Z,2.88
2024-04-24T14:27:27.905Z,2.13
2024-04-24T14:30:29.897Z,1.98
2024-04-24T14:33:31.894Z,2.83
2024-04-24T14:36:33.798Z,1.80
2024-04-24T14:39:35.668Z,2.17
2024-04-24T14:42:37.624Z,2.75
2024-04-24T14:45:39.602Z,1.98
2024-04-24T14:48:41.937Z,1.13
2024-04-24T14:51:43.996Z,2.90
2024-04-24T14:54:46.536Z,2.50
2024-04-24T14:57:49.042Z,1.45
2024-04-24T15:00:51.033Z,3.63
2024-04-24T15:03:52.969Z,1.67
2024-04-24T15:07:00.052Z,5.85
2024-04-24T15:10:01.999Z,2.78
2024-04-24T15:13:04.039Z,7.15
2024-04-24T15:16:06.108Z,7.47
2024-04-24T15:19:07.972Z,4.27
2024-04-24T15:22:09.891Z,9.23
2024-04-24T15:25:12.091Z,2.35
2024-04-24T15:28:13.967Z,2.72
2024-04-24T15:31:15.834Z,2.22
2024-04-24T15:34:18.336Z,2.53
2024-04-24T15:37:21.002Z,4.35
2024-04-24T15:40:23.139Z,1.85
2024-04-24T15:43:25.941Z,2.28
2024-04-24T15:46:27.926Z,2.20
2024-04-24T15:49:29.860Z,5.03
2024-04-24T15:52:31.757Z,3.35
2024-04-24T15:55:33.664Z,2.78
2024-04-24T15:58:35.889Z,2.13
2024-04-24T16:01:37.843Z,2.70
2024-04-24T16:04:39.795Z,2.00
2024-04-24T16:07:41.710Z,2.70
2024-04-24T16:10:43.977Z,2.40
2024-04-24T16:13:45.970Z,1.55
2024-04-24T16:16:48.410Z,2.73
2024-04-24T16:19:50.897Z,2.03
2024-04-24T16:22:53.500Z,2.28
2024-04-24T16:25:55.626Z,2.67
2024-04-24T16:28:57.633Z,2.78
2024-04-24T16:31:59.823Z,3.05
2024-04-24T16:35:02.630Z,2.60
2024-04-24T16:38:04.678Z,2.55
2024-04-24T16:41:08.039Z,2.38
2024-04-24T16:44:10.106Z,2.90
2024-04-24T16:47:12.408Z,4.50
2024-04-24T16:50:14.495Z,2.93
2024-04-24T16:53:17.042Z,6.93
2024-04-24T16:56:20.467Z,13.63
2024-04-24T16:59:22.429Z,12.40
2024-04-24T17:02:24.687Z,9.60
2024-04-24T17:05:26.724Z,10.17
2024-04-24T17:08:30.515Z,11.57
2024-04-24T17:11:32.589Z,17.27
2024-04-24T17:14:34.817Z,11.63
2024-04-24T17:17:37.002Z,15.20
2024-04-24T17:20:39.151Z,13.33
2024-04-24T17:23:41.071Z,15.77
2024-04-24T17:26:45.784Z,38.58
2024-04-24T17:29:47.751Z,8.65
2024-04-24T17:32:50.183Z,24.55
2024-04-24T17:35:52.798Z,11.07
2024-04-24T17:38:55.053Z,7.15
2024-04-24T17:41:59.177Z,19.42
2024-04-24T17:45:02.526Z,16.77
2024-04-24T17:48:05.265Z,11.70
2024-04-24T17:51:07.639Z,6.70
2024-04-24T17:54:09.820Z,12.85
2024-04-24T17:57:12.032Z,20.77
2024-04-24T18:00:14.089Z,25.55
2024-04-24T18:03:16.293Z,18.73
2024-04-24T18:06:18.887Z,18.40
2024-04-24T18:09:20.907Z,12.98
2024-04-24T18:12:22.955Z,14.60
2024-04-24T18:15:25.296Z,14.50
2024-04-24T18:18:27.928Z,20.38
2024-04-24T18:21:32.184Z,13.13
2024-04-24T18:24:34.876Z,10.80
2024-04-24T18:27:37.036Z,9.77
2024-04-24T18:30:39.190Z,9.20
2024-04-24T18:33:41.660Z,7.07
2024-04-24T18:36:44.161Z,10.23
2024-04-24T18:39:46.587Z,7.78
2024-04-24T18:42:49.016Z,6.57
2024-04-24T18:45:51.276Z,7.32
2024-04-24T18:48:53.782Z,7.18
2024-04-24T18:51:56.159Z,6.60
2024-04-24T18:54:58.406Z,7.47
2024-04-24T18:58:00.662Z,9.63
2024-04-24T19:01:02.991Z,11.25
2024-04-24T19:04:13.310Z,9.82
2024-04-24T19:07:15.831Z,11.97
2024-04-24T19:10:18.091Z,11.13
2024-04-24T19:13:20.120Z,8.40
2024-04-24T19:16:23.893Z,8.60
2024-04-24T19:19:27.129Z,11.38
2024-04-24T19:22:30.610Z,10.30
2024-04-24T19:25:33.864Z,10.85
2024-04-24T19:28:38.464Z,17.77
2024-04-24T19:31:40.770Z,9.95
2024-04-24T19:34:42.985Z,11.97
2024-04-24T19:37:48.812Z,9.53
2024-04-24T19:40:50.940Z,12.43
2024-04-24T19:43:53.521Z,8.38
2024-04-24T19:46:55.912Z,8.02
2024-04-24T19:49:58.173Z,9.90
2024-04-24T19:53:00.678Z,8.73
2024-04-24T19:56:06.185Z,6.05
2024-04-24T19:59:08.212Z,6.60
2024-04-24T20:02:10.646Z,7.07
2024-04-24T20:05:13.080Z,5.68
2024-04-24T20:08:15.234Z,6.43
2024-04-24T20:11:17.620Z,6.03
2024-04-24T20:14:20.123Z,8.68
2024-04-24T20:17:22.790Z,6.90
2024-04-24T20:20:25.211Z,7.18
2024-04-24T20:23:27.407Z,7.03
2024-04-24T20:26:29.826Z,7.20
2024-04-24T20:29:34.664Z,5.95
2024-04-24T20:32:38.035Z,6.78
2024-04-24T20:35:40.281Z,9.90
2024-04-24T20:38:42.356Z,5.33
2024-04-24T20:41:45.902Z,6.50
2024-04-24T20:44:47.853Z,7.57
2024-04-24T20:47:50.120Z,7.25
2024-04-24T20:50:52.186Z,6.05
2024-04-24T20:53:54.099Z,8.33
2024-04-24T20:56:56.646Z,8.02
2024-04-24T20:59:59.565Z,6.93
2024-04-24T21:03:02.104Z,8.27
2024-04-24T21:06:07.584Z,8.00
2024-04-24T21:09:10.104Z,6.50
2024-04-24T21:12:12.066Z,8.50
2024-04-24T21:15:14.477Z,7.70
2024-04-24T21:18:16.388Z,7.78
2024-04-24T21:21:18.876Z,11.17
2024-04-24T21:24:21.007Z,7.53
2024-04-24T21:27:22.876Z,8.05
2024-04-24T21:30:24.735Z,7.45
2024-04-24T21:33:30.662Z,8.93
2024-04-24T21:36:33.445Z,12.85
2024-04-24T21:39:35.376Z,9.57
2024-04-24T21:42:37.224Z,8.90
2024-04-24T21:45:39.142Z,11.30
2024-04-24T21:48:41.374Z,8.88
2024-04-24T21:51:43.227Z,8.60
2024-04-24T21:54:45.161Z,9.23
2024-04-24T21:57:47.101Z,8.00
2024-04-24T22:00:49.021Z,9.65
2024-04-24T22:03:50.971Z,11.90
2024-04-24T22:06:52.882Z,7.28
2024-04-24T22:09:55.057Z,8.93
2024-04-24T22:13:01.372Z,10.77
2024-04-24T22:16:03.743Z,9.45
2024-04-24T22:19:05.806Z,9.40
2024-04-24T22:22:07.756Z,8.45
2024-04-24T22:25:13.488Z,8.87
2024-04-24T22:28:15.568Z,10.60
2024-04-24T22:31:17.501Z,9.55
2024-04-24T22:34:19.371Z,7.70
2024-04-24T22:37:21.244Z,10.95
2024-04-24T22:40:23.139Z,7.87
2024-04-24T22:43:25.110Z,6.78
2024-04-24T22:46:27.062Z,9.43
2024-04-24T22:49:28.995Z,8.65
2024-04-24T22:52:30.890Z,11.80
2024-04-24T22:55:33.987Z,9.13
2024-04-24T22:58:35.879Z,7.10
2024-04-24T23:01:37.808Z,10.02
2024-04-24T23:04:39.733Z,11.43
2024-04-24T23:07:41.645Z,10.73
2024-04-24T23:10:45.525Z,11.90
2024-04-24T23:13:47.514Z,10.77
2024-04-24T23:16:49.431Z,11.57
2024-04-24T23:19:51.834Z,11.70
2024-04-24T23:22:53.772Z,11.43
2024-04-24T23:25:55.666Z,12.17
2024-04-24T23:28:57.614Z,8.80
2024-04-24T23:31:59.695Z,9.82
2024-04-24T23:35:01.607Z,11.18
2024-04-24T23:38:03.752Z,8.90
2024-04-24T23:41:05.728Z,10.13
2024-04-24T23:44:07.969Z,10.73
2024-04-24T23:47:10.622Z,10.40
2024-04-24T23:50:12.585Z,6.18
2024-04-24T23:53:14.570Z,8.63
2024-04-24T23:56:16.565Z,7.57
2024-04-24T23:59:18.575Z,9.23
